createdAt,value
2023-05-17T00:00:01.749Z,5.78
2023-05-17T00:02:28.760Z,3.95
2023-05-17T00:04:56.298Z,3.85
2023-05-17T00:07:23.432Z,3.25
2023-05-17T00:09:50.392Z,4.32
2023-05-17T00:12:17.381Z,2.50
2023-05-17T00:14:44.360Z,4.00
2023-05-17T00:17:11.524Z,4.57
2023-05-17T00:19:38.536Z,8.00
2023-05-17T00:22:05.631Z,5.05
2023-05-17T00:24:32.574Z,3.38
2023-05-17T00:26:59.550Z,2.58
2023-05-17T00:29:26.503Z,2.10
2023-05-17T00:31:53.573Z,2.40
2023-05-17T00:34:20.635Z,4.68
2023-05-17T00:36:47.594Z,4.65
2023-05-17T00:39:14.782Z,8.20
2023-05-17T00:41:42.217Z,3.50
2023-05-17T00:44:09.247Z,4.50
2023-05-17T00:46:36.425Z,5.07
2023-05-17T00:49:03.841Z,3.03
2023-05-17T00:51:31.716Z,5.63
2023-05-17T00:53:59.183Z,4.50
2023-05-17T00:56:26.168Z,4.82
2023-05-17T00:58:54.738Z,3.95
2023-05-17T01:01:22.738Z,5.68
2023-05-17T01:03:49.944Z,2.85
2023-05-17T01:06:17.170Z,6.65
2023-05-17T01:08:44.630Z,3.60
2023-05-17T01:11:12.992Z,4.63
2023-05-17T01:13:58.547Z,2.08
2023-05-17T01:16:36.992Z,6.13
2023-05-17T01:19:25.874Z,4.68
2023-05-17T01:22:29.615Z,6.25
2023-05-17T01:25:16.274Z,3.80
2023-05-17T01:27:45.632Z,3.03
2023-05-17T01:30:13.904Z,4.93
2023-05-17T01:32:44.778Z,3.33
2023-05-17T01:35:12.762Z,4.38
2023-05-17T01:37:40.054Z,2.72
2023-05-17T01:40:09.063Z,3.58
2023-05-17T01:42:42.830Z,4.57
2023-05-17T01:45:25.079Z,3.80
2023-05-17T01:48:23.466Z,4.18
2023-05-17T01:50:54.629Z,3.75
2023-05-17T01:53:33.191Z,5.15
2023-05-17T01:56:13.571Z,2.20
2023-05-17T01:58:47.615Z,3.97
2023-05-17T02:01:19.716Z,6.70
2023-05-17T02:03:50.820Z,4.85
2023-05-17T02:06:18.145Z,3.05
2023-05-17T02:08:45.375Z,5.53
2023-05-17T02:11:13.137Z,4.30
2023-05-17T02:13:40.641Z,2.50
2023-05-17T02:16:08.149Z,6.05
2023-05-17T02:18:37.902Z,3.67
2023-05-17T02:21:05.425Z,5.88
2023-05-17T02:23:32.507Z,7.40
2023-05-17T02:25:59.522Z,3.33
2023-05-17T02:28:27.843Z,4.05
2023-05-17T02:30:56.610Z,2.63
2023-05-17T02:33:23.978Z,6.20
2023-05-17T02:35:51.288Z,5.22
2023-05-17T02:38:19.852Z,5.65
2023-05-17T02:40:46.859Z,3.00
2023-05-17T02:43:13.898Z,2.95
2023-05-17T02:45:40.910Z,2.45
2023-05-17T02:48:07.998Z,4.70
2023-05-17T02:50:35.121Z,3.28
2023-05-17T02:53:02.194Z,3.35
2023-05-17T02:55:29.528Z,3.40
2023-05-17T02:57:56.812Z,4.95
2023-05-17T03:00:24.877Z,3.05
2023-05-17T03:02:52.390Z,3.53
2023-05-17T03:05:19.449Z,2.63
2023-05-17T03:07:49.882Z,8.00
2023-05-17T03:10:17.098Z,2.67
2023-05-17T03:12:46.047Z,4.90
2023-05-17T03:15:14.530Z,2.88
2023-05-17T03:17:41.610Z,2.38
2023-05-17T03:20:10.135Z,8.52
2023-05-17T03:22:37.215Z,5.95
2023-05-17T03:25:05.946Z,7.25
2023-05-17T03:30:01.998Z,3.50
2023-05-17T03:32:30.856Z,4.50
2023-05-17T03:34:58.362Z,3.22
2023-05-17T03:37:26.699Z,3.13
2023-05-17T03:39:53.711Z,4.88
2023-05-17T03:42:20.914Z,4.00
2023-05-17T03:44:48.724Z,4.80
2023-05-17T03:47:16.038Z,3.67
2023-05-17T03:49:43.929Z,3.08
2023-05-17T03:52:11.619Z,4.65
2023-05-17T03:54:38.971Z,6.18
2023-05-17T03:57:06.197Z,4.90
2023-05-17T03:59:33.255Z,4.75
2023-05-17T04:02:00.539Z,3.80
2023-05-17T04:04:27.786Z,3.70
2023-05-17T04:06:54.886Z,5.85
2023-05-17T04:09:21.897Z,5.65
2023-05-17T04:11:48.898Z,8.15
2023-05-17T04:14:17.651Z,5.57
2023-05-17T04:16:45.221Z,5.82
2023-05-17T04:19:12.380Z,4.50
2023-05-17T04:21:40.134Z,3.70
2023-05-17T04:24:07.880Z,4.78
2023-05-17T04:26:34.982Z,12.15
2023-05-17T04:29:02.005Z,6.88
2023-05-17T04:31:29.091Z,5.55
2023-05-17T04:33:56.295Z,6.38
2023-05-17T04:36:23.721Z,5.47
2023-05-17T04:38:51.370Z,4.68
2023-05-17T04:41:23.211Z,5.85
2023-05-17T04:43:50.269Z,7.07
2023-05-17T04:46:24.453Z,4.18
2023-05-17T04:48:51.623Z,8.45
2023-05-17T04:51:18.745Z,4.88
2023-05-17T04:53:45.938Z,8.77
2023-05-17T04:56:16.949Z,7.57
2023-05-17T04:58:45.376Z,4.50
2023-05-17T05:01:13.077Z,6.70
2023-05-17T05:03:40.480Z,7.13
2023-05-17T05:06:09.057Z,11.07
2023-05-17T05:08:37.671Z,14.73
2023-05-17T05:11:07.160Z,9.45
2023-05-17T05:13:34.323Z,10.50
2023-05-17T05:16:01.386Z,7.90
2023-05-17T05:18:32.473Z,13.52
2023-05-17T05:21:00.266Z,8.65
2023-05-17T05:23:27.372Z,10.10
2023-05-17T05:25:54.821Z,5.13
2023-05-17T05:28:21.870Z,5.57
2023-05-17T05:30:49.203Z,11.52
2023-05-17T05:33:16.631Z,6.97
2023-05-17T05:35:43.837Z,6.53
2023-05-17T05:38:10.918Z,8.63
2023-05-17T05:41:48.140Z,6.00
2023-05-17T05:44:15.291Z,7.15
2023-05-17T05:46:42.432Z,4.18
2023-05-17T05:49:09.554Z,6.35
2023-05-17T05:51:37.626Z,7.32
2023-05-17T05:54:04.669Z,3.97
2023-05-17T05:56:31.739Z,5.90
2023-05-17T05:58:58.853Z,5.93
2023-05-17T06:01:26.715Z,5.22
2023-05-17T06:03:53.734Z,6.68
2023-05-17T06:06:20.888Z,7.90
2023-05-17T06:08:48.008Z,3.80
2023-05-17T06:11:15.115Z,6.03
2023-05-17T06:13:42.239Z,6.72
2023-05-17T06:16:09.267Z,6.50
2023-05-17T06:18:36.375Z,8.57
2023-05-17T06:21:03.625Z,8.70
2023-05-17T06:23:30.714Z,8.45
2023-05-17T06:25:57.750Z,11.50
2023-05-17T06:28:24.800Z,7.43
2023-05-17T06:30:51.847Z,10.95
2023-05-17T06:33:19.088Z,8.57
2023-05-17T06:35:56.007Z,11.10
2023-05-17T06:38:24.867Z,8.98
2023-05-17T06:40:54.174Z,8.85
2023-05-17T06:43:21.365Z,9.23
2023-05-17T06:45:48.484Z,5.75
2023-05-17T06:48:16.027Z,7.95
2023-05-17T06:50:43.257Z,7.65
2023-05-17T06:53:10.329Z,4.75
2023-05-17T06:55:37.690Z,10.38
2023-05-17T06:58:04.872Z,6.65
2023-05-17T07:00:32.448Z,7.80
2023-05-17T07:03:00.191Z,8.73
2023-05-17T07:05:29.508Z,8.48
2023-05-17T07:07:58.660Z,8.52
2023-05-17T07:10:25.929Z,8.25
2023-05-17T07:12:53.617Z,7.18
2023-05-17T07:15:20.743Z,8.23
2023-05-17T07:17:47.853Z,10.38
2023-05-17T07:20:15.119Z,6.78
2023-05-17T07:22:42.279Z,6.07
2023-05-17T07:25:10.111Z,6.35
2023-05-17T07:27:37.280Z,8.57
2023-05-17T07:30:04.878Z,7.95
2023-05-17T07:32:31.993Z,12.60
2023-05-17T07:34:59.045Z,9.55
2023-05-17T07:37:26.135Z,7.65
2023-05-17T07:39:53.298Z,10.40
2023-05-17T07:42:20.316Z,8.38
2023-05-17T07:44:48.802Z,9.90
2023-05-17T07:47:16.509Z,10.13
2023-05-17T07:49:43.689Z,9.27
2023-05-17T07:52:10.756Z,9.35
2023-05-17T07:54:37.945Z,11.27
2023-05-17T07:57:05.001Z,7.32
2023-05-17T07:59:32.108Z,9.40
2023-05-17T08:01:59.103Z,9.90
2023-05-17T08:04:26.390Z,7.97
2023-05-17T08:06:54.572Z,6.97
2023-05-17T08:09:21.686Z,9.13
2023-05-17T08:11:48.776Z,11.93
2023-05-17T08:14:16.807Z,6.57
2023-05-17T08:16:45.498Z,6.75
2023-05-17T08:19:14.946Z,6.95
2023-05-17T08:21:43.236Z,8.48
2023-05-17T08:24:10.448Z,7.90
2023-05-17T08:26:37.735Z,10.55
2023-05-17T08:29:05.168Z,8.57
2023-05-17T08:31:33.012Z,8.20
2023-05-17T08:34:00.183Z,6.43
2023-05-17T08:36:28.558Z,10.02
2023-05-17T08:38:55.623Z,8.80
2023-05-17T08:41:22.943Z,6.35
2023-05-17T08:43:51.158Z,6.07
2023-05-17T08:46:22.030Z,9.45
2023-05-17T08:49:00.234Z,8.13
2023-05-17T08:51:28.007Z,8.60
2023-05-17T08:53:55.788Z,6.05
2023-05-17T08:56:25.935Z,9.10
2023-05-17T08:58:57.938Z,9.07
2023-05-17T09:01:26.791Z,9.27
2023-05-17T09:03:54.925Z,11.23
2023-05-17T09:06:23.688Z,9.30
2023-05-17T09:08:53.007Z,7.85
2023-05-17T09:11:27.023Z,8.82
2023-05-17T09:13:54.175Z,10.30
2023-05-17T09:16:24.166Z,7.18
2023-05-17T09:18:55.804Z,12.20
2023-05-17T09:21:23.974Z,6.72
2023-05-17T09:24:05.665Z,8.32
2023-05-17T09:26:42.811Z,9.40
2023-05-17T09:29:11.892Z,9.65
2023-05-17T09:31:40.268Z,7.10
2023-05-17T09:34:08.551Z,8.05
2023-05-17T09:36:38.602Z,7.68
2023-05-17T09:41:42.404Z,6.93
2023-05-17T09:44:10.570Z,7.80
2023-05-17T09:46:48.911Z,7.28
2023-05-17T09:49:18.059Z,8.23
2023-05-17T09:51:47.752Z,6.68
2023-05-17T09:56:42.186Z,8.90
2023-05-17T09:59:14.804Z,9.00
2023-05-17T10:01:45.449Z,5.78
2023-05-17T10:04:13.741Z,7.78
2023-05-17T10:09:15.926Z,7.68
2023-05-17T10:11:47.583Z,7.18
2023-05-17T10:14:27.645Z,4.60
2023-05-17T10:16:56.440Z,6.72
2023-05-17T10:19:24.885Z,7.35
2023-05-17T10:21:53.942Z,9.07
2023-05-17T10:24:24.280Z,8.07
2023-05-17T10:26:52.109Z,9.13
2023-05-17T10:29:21.357Z,6.25
2023-05-17T10:31:51.337Z,5.15
2023-05-17T10:34:20.132Z,6.97
2023-05-17T10:36:49.970Z,4.38
2023-05-17T10:41:46.691Z,6.22
2023-05-17T10:46:52.670Z,9.88
2023-05-17T10:49:24.146Z,8.55
2023-05-17T10:51:52.202Z,6.32
2023-05-17T10:54:19.505Z,8.63
2023-05-17T10:56:52.145Z,5.85
2023-05-17T10:59:23.228Z,5.65
2023-05-17T11:02:27.438Z,8.80
2023-05-17T11:04:56.736Z,10.18
2023-05-17T11:07:27.506Z,6.35
2023-05-17T11:10:08.108Z,7.22
2023-05-17T11:12:44.688Z,7.05
2023-05-17T11:15:18.435Z,4.60
2023-05-17T11:17:54.775Z,5.10
2023-05-17T11:20:28.357Z,7.47
2023-05-17T11:23:05.046Z,6.22
2023-05-17T11:25:40.862Z,8.55
2023-05-17T11:28:28.231Z,5.13
2023-05-17T11:31:01.246Z,8.75
2023-05-17T11:33:45.843Z,15.48
2023-05-17T11:36:20.655Z,11.20
2023-05-17T11:39:10.144Z,8.88
2023-05-17T11:41:48.060Z,7.80
2023-05-17T11:44:16.743Z,6.75
2023-05-17T11:46:44.937Z,7.03
2023-05-17T11:49:15.567Z,7.35
2023-05-17T11:51:50.762Z,11.50
2023-05-17T11:54:19.035Z,7.97
2023-05-17T11:56:46.331Z,6.57
2023-05-17T11:59:22.504Z,6.15
2023-05-17T12:01:51.175Z,6.15
2023-05-17T12:04:26.106Z,8.40
2023-05-17T12:06:56.623Z,7.00
2023-05-17T12:09:24.544Z,7.13
2023-05-17T12:12:04.799Z,9.60
2023-05-17T12:14:32.111Z,10.68
2023-05-17T12:17:30.305Z,6.55
2023-05-17T12:20:07.535Z,8.02
2023-05-17T12:22:34.744Z,6.07
2023-05-17T12:25:31.138Z,8.85
2023-05-17T12:28:22.238Z,7.15
2023-05-17T12:30:54.089Z,8.05
2023-05-17T12:33:21.437Z,6.63
2023-05-17T12:35:48.686Z,10.00
2023-05-17T12:38:16.057Z,6.05
2023-05-17T12:40:43.621Z,8.73
2023-05-17T12:43:11.005Z,6.63
2023-05-17T12:45:41.202Z,5.97
2023-05-17T12:48:08.351Z,8.98
2023-05-17T12:50:35.542Z,8.82
2023-05-17T12:53:09.098Z,5.18
2023-05-17T12:55:39.251Z,8.32
2023-05-17T12:58:06.464Z,5.35
2023-05-17T13:00:33.908Z,6.82
2023-05-17T13:03:01.497Z,5.93
2023-05-17T13:05:28.693Z,6.88
2023-05-17T13:07:55.793Z,7.88
2023-05-17T13:10:26.330Z,8.07
2023-05-17T13:13:00.530Z,8.27
2023-05-17T13:15:32.278Z,5.88
2023-05-17T13:18:00.728Z,4.88
2023-05-17T13:20:28.389Z,8.15
2023-05-17T13:22:55.802Z,6.35
2023-05-17T13:25:22.934Z,9.77
2023-05-17T13:27:49.972Z,9.73
2023-05-17T13:30:17.747Z,8.02
2023-05-17T13:32:45.349Z,7.15
2023-05-17T13:35:12.516Z,7.15
2023-05-17T13:37:40.021Z,6.82
2023-05-17T13:40:08.489Z,5.32
2023-05-17T13:42:37.506Z,7.05
2023-05-17T13:45:05.323Z,11.55
2023-05-17T13:47:32.864Z,10.68
2023-05-17T13:50:04.084Z,7.43
2023-05-17T13:52:31.585Z,9.27
2023-05-17T13:54:58.625Z,10.40
2023-05-17T13:57:34.501Z,8.45
2023-05-17T14:00:01.522Z,7.15
2023-05-17T14:02:28.667Z,5.95
2023-05-17T14:04:55.753Z,7.28
2023-05-17T14:07:23.608Z,5.90
2023-05-17T14:09:50.717Z,5.53
2023-05-17T14:12:17.780Z,8.60
2023-05-17T14:14:44.816Z,7.85
2023-05-17T14:17:12.588Z,7.00
2023-05-17T14:19:39.771Z,7.47
2023-05-17T14:22:08.922Z,7.60
2023-05-17T14:24:36.426Z,6.68
2023-05-17T14:27:03.819Z,7.35
2023-05-17T14:29:32.023Z,9.88
2023-05-17T14:31:59.091Z,8.75
2023-05-17T14:34:26.164Z,10.98
2023-05-17T14:36:53.716Z,12.35
2023-05-17T14:39:21.086Z,9.35
2023-05-17T14:41:48.134Z,9.63
2023-05-17T14:44:15.288Z,9.57
2023-05-17T14:50:39.959Z,10.38
2023-05-17T14:53:07.229Z,10.82
2023-05-17T14:55:34.308Z,11.13
2023-05-17T14:58:02.678Z,6.78
2023-05-17T15:00:30.044Z,6.68
2023-05-17T15:02:57.223Z,8.25
2023-05-17T15:05:24.581Z,9.52
2023-05-17T15:07:51.873Z,8.95
2023-05-17T15:10:18.968Z,7.95
2023-05-17T15:12:46.044Z,8.43
2023-05-17T15:15:13.321Z,9.00
2023-05-17T15:17:40.407Z,8.05
2023-05-17T15:20:10.797Z,6.85
2023-05-17T15:22:37.938Z,7.75
2023-05-17T15:25:05.978Z,6.00
2023-05-17T15:27:33.030Z,9.52
2023-05-17T15:30:00.244Z,6.65
2023-05-17T15:32:27.303Z,5.63
2023-05-17T15:34:54.319Z,8.98
2023-05-17T15:37:21.608Z,9.60
2023-05-17T15:44:09.153Z,6.07
2023-05-17T15:46:36.557Z,7.53
2023-05-17T15:49:03.727Z,9.30
2023-05-17T15:51:31.018Z,6.03
2023-05-17T15:53:58.214Z,10.25
2023-05-17T15:56:25.948Z,11.52
2023-05-17T15:59:23.648Z,6.40
2023-05-17T16:02:09.485Z,12.20
2023-05-17T16:04:36.653Z,8.68
2023-05-17T16:07:04.082Z,11.25
2023-05-17T16:09:57.763Z,9.38
2023-05-17T16:12:32.857Z,8.30
2023-05-17T16:14:59.889Z,11.57
2023-05-17T16:17:27.394Z,7.03
2023-05-17T16:19:54.578Z,9.18
2023-05-17T16:22:21.749Z,7.53
2023-05-17T16:24:53.753Z,8.00
2023-05-17T16:27:20.764Z,8.07
2023-05-17T16:29:47.902Z,8.52
2023-05-17T16:32:15.642Z,9.13
2023-05-17T16:34:42.829Z,7.57
2023-05-17T16:37:09.898Z,6.22
2023-05-17T16:39:37.156Z,9.98
2023-05-17T16:42:04.420Z,9.57
2023-05-17T16:44:31.540Z,5.13
2023-05-17T16:46:58.810Z,5.95
2023-05-17T16:49:26.484Z,6.53
2023-05-17T16:51:53.576Z,7.57
2023-05-17T16:54:20.794Z,7.53
2023-05-17T16:56:47.877Z,6.80
2023-05-17T16:59:15.881Z,9.30
2023-05-17T17:01:43.253Z,6.82
2023-05-17T17:04:10.727Z,10.90
2023-05-17T17:06:38.252Z,8.10
2023-05-17T17:09:08.350Z,8.85
2023-05-17T17:11:35.953Z,6.05
2023-05-17T17:14:03.016Z,6.45
2023-05-17T17:16:31.379Z,6.30
2023-05-17T17:18:59.032Z,7.03
2023-05-17T17:21:26.264Z,8.50
2023-05-17T17:23:53.706Z,6.63
2023-05-17T17:26:21.117Z,7.72
2023-05-17T17:28:48.209Z,6.65
2023-05-17T17:31:15.278Z,6.57
2023-05-17T17:33:42.314Z,6.40
2023-05-17T17:36:11.309Z,6.53
2023-05-17T17:38:38.404Z,9.45
2023-05-17T17:41:05.689Z,6.05
2023-05-17T17:43:32.726Z,6.38
2023-05-17T17:45:59.758Z,7.65
2023-05-17T17:48:26.806Z,6.65
2023-05-17T17:50:53.943Z,7.47
2023-05-17T17:53:22.128Z,5.28
2023-05-17T17:55:49.220Z,5.80
2023-05-17T17:58:16.274Z,7.47
2023-05-17T18:00:43.387Z,5.28
2023-05-17T18:03:10.857Z,5.55
2023-05-17T18:05:38.432Z,10.95
2023-05-17T18:08:10.053Z,9.27
2023-05-17T18:10:37.119Z,6.07
2023-05-17T18:13:04.951Z,7.43
2023-05-17T18:15:32.100Z,6.53
2023-05-17T18:17:59.248Z,5.80
2023-05-17T18:20:26.525Z,6.72
2023-05-17T18:22:54.151Z,4.50
2023-05-17T18:25:21.756Z,7.03
2023-05-17T18:27:48.823Z,5.13
2023-05-17T18:30:16.977Z,8.85
2023-05-17T18:32:44.347Z,6.57
2023-05-17T18:35:11.547Z,5.50
2023-05-17T18:37:38.591Z,4.35
2023-05-17T18:40:06.683Z,4.18
2023-05-17T18:42:39.412Z,7.80
2023-05-17T18:45:07.560Z,7.07
2023-05-17T18:47:34.740Z,7.93
2023-05-17T18:50:01.888Z,8.50
2023-05-17T18:52:28.991Z,9.88
2023-05-17T18:54:55.961Z,7.65
2023-05-17T18:57:23.021Z,8.35
2023-05-17T18:59:50.031Z,9.98
2023-05-17T19:02:16.979Z,9.32
2023-05-17T19:04:44.310Z,9.45
2023-05-17T19:07:11.350Z,10.15
2023-05-17T19:09:38.921Z,10.55
2023-05-17T19:12:06.625Z,11.95
2023-05-17T19:14:33.696Z,16.25
2023-05-17T19:17:00.888Z,9.82
2023-05-17T19:19:27.948Z,10.27
2023-05-17T19:21:54.986Z,7.60
2023-05-17T19:24:22.013Z,7.65
2023-05-17T19:26:49.051Z,11.52
2023-05-17T19:29:16.079Z,11.85
2023-05-17T19:31:43.188Z,6.15
2023-05-17T19:34:10.571Z,6.55
2023-05-17T19:36:37.769Z,6.50
2023-05-17T19:39:04.859Z,9.35
2023-05-17T19:41:31.925Z,7.00
2023-05-17T19:43:59.023Z,6.13
2023-05-17T19:46:26.139Z,7.85
2023-05-17T19:48:53.284Z,8.43
2023-05-17T19:51:20.318Z,7.85
2023-05-17T19:53:53.424Z,6.28
2023-05-17T19:56:23.449Z,5.95
2023-05-17T19:58:52.297Z,10.55
2023-05-17T20:01:19.464Z,9.97
2023-05-17T20:03:46.728Z,13.55
2023-05-17T20:06:15.153Z,9.00
2023-05-17T20:08:42.557Z,9.88
2023-05-17T20:11:09.761Z,8.95
2023-05-17T20:13:40.487Z,8.98
2023-05-17T20:16:14.571Z,10.15
2023-05-17T20:18:45.667Z,7.28
2023-05-17T20:21:18.221Z,7.68
2023-05-17T20:23:45.805Z,5.18
2023-05-17T20:27:04.050Z,8.98
2023-05-17T20:29:31.147Z,7.43
2023-05-17T20:31:59.199Z,6.30
2023-05-17T20:34:28.623Z,7.20
2023-05-17T20:36:57.009Z,7.97
2023-05-17T20:40:39.255Z,8.25
2023-05-17T20:43:59.320Z,5.82
2023-05-17T20:46:29.939Z,6.05
2023-05-17T20:48:58.175Z,7.63
2023-05-17T20:51:27.119Z,6.40
2023-05-17T20:53:54.593Z,4.17
2023-05-17T20:56:21.807Z,4.97
2023-05-17T20:58:49.292Z,8.30
2023-05-17T21:01:16.409Z,7.20
2023-05-17T21:03:43.942Z,6.72
2023-05-17T21:06:11.186Z,11.57
2023-05-17T21:08:38.623Z,6.72
2023-05-17T21:11:05.769Z,4.63
2023-05-17T21:17:45.930Z,7.85
2023-05-17T21:20:13.869Z,7.05
2023-05-17T21:22:40.923Z,8.15
2023-05-17T21:25:37.953Z,9.48
2023-05-17T21:28:06.148Z,9.27
2023-05-17T21:30:33.303Z,6.15
2023-05-17T21:33:00.485Z,6.45
2023-05-17T21:35:27.592Z,7.22
2023-05-17T21:37:54.669Z,6.70
2023-05-17T21:40:21.764Z,6.13
2023-05-17T21:43:00.020Z,9.60
2023-05-17T21:45:27.401Z,14.50
2023-05-17T21:47:55.600Z,11.85
2023-05-17T21:50:22.942Z,16.30
2023-05-17T21:53:44.726Z,29.73
2023-05-17T21:56:12.234Z,37.47
2023-05-17T21:58:39.403Z,27.48
2023-05-17T22:01:07.052Z,20.27
2023-05-17T22:03:34.941Z,21.33
2023-05-17T22:06:02.081Z,18.35
2023-05-17T22:08:29.202Z,15.45
2023-05-17T22:10:57.174Z,13.98
2023-05-17T22:13:26.966Z,17.10
2023-05-17T22:15:57.453Z,11.38
2023-05-17T22:18:27.024Z,15.57
2023-05-17T22:20:55.202Z,17.55
2023-05-17T22:23:22.304Z,13.82
2023-05-17T22:25:49.296Z,16.70
2023-05-17T22:28:16.361Z,16.38
2023-05-17T22:30:45.161Z,13.32
2023-05-17T22:33:12.297Z,15.30
2023-05-17T22:35:41.200Z,14.38
2023-05-17T22:38:08.269Z,17.57
2023-05-17T22:40:35.350Z,16.30
2023-05-17T22:43:02.420Z,15.95
2023-05-17T22:45:33.416Z,16.63
2023-05-17T22:48:03.115Z,14.30
2023-05-17T22:50:33.816Z,8.63
2023-05-17T22:53:01.513Z,14.07
2023-05-17T22:55:31.480Z,9.73
2023-05-17T22:57:59.618Z,10.93
2023-05-17T23:00:27.201Z,10.15
2023-05-17T23:02:54.454Z,9.23
2023-05-17T23:05:22.349Z,13.30
2023-05-17T23:07:49.527Z,12.95
2023-05-17T23:10:16.664Z,8.98
2023-05-17T23:12:43.819Z,8.40
2023-05-17T23:15:12.868Z,7.90
2023-05-17T23:17:41.476Z,10.00
2023-05-17T23:20:10.275Z,8.52
2023-05-17T23:22:39.100Z,7.88
2023-05-17T23:25:08.458Z,13.30
2023-05-17T23:27:36.768Z,11.80
2023-05-17T23:30:05.027Z,8.50
2023-05-17T23:32:34.297Z,11.10
2023-05-17T23:35:05.522Z,9.48
2023-05-17T23:37:33.880Z,8.05
2023-05-17T23:40:02.017Z,11.95
2023-05-17T23:42:29.720Z,7.90
2023-05-17T23:44:56.989Z,11.05
2023-05-17T23:47:24.619Z,12.15
2023-05-17T23:49:52.946Z,10.35
2023-05-17T23:52:20.237Z,14.95
2023-05-17T23:54:47.893Z,10.52
2023-05-17T23:57:15.153Z,8.68
2023-05-17T23:59:43.444Z,11.23
